Norwegian Dream — C6LG5 — position and weather

sailwx.info

Track history (hours):
 
Tides and Currents Weather Stations Pressure Air Temp Water Temp Dewpoint Dewpoint Depression Visibility Wind Speed Wind Dir Waves Ship Positions

Norwegian Dream

Operator: Norwegian Cruise Line

Last reported at 2019-Sep-21 18:00 UTC. Time now 2019-Sep-22 00:22 UTC.
Position N 24°06' E 118°36'.

Type: Ship. MMSI: 308272000.

Wind from 100 at 6 knots

Barometer 1010.0 mb
Air temperature 25.0 ° C
Visibility: greater than 10.8 NM
Dewpoint 20.7 ° C

Date/timePositionNaut miles runAvg speedWind from/ knotsBaromVisibWave heightAir tempDewpointWater temp
2019-Sep-21 18:00N 24°06' E 118°36'1713.5 100 / 61010.010.8 25.020.7
2019-Sep-21 16:42N 24°13' E 118°19'314.9
2019-Sep-21 16:31N 24°14' E 118°16'714.2
2019-Sep-21 16:00N 24°20' E 118°11'713.2
2019-Sep-21 15:30N 24°24' E 118°06'5 9.5
2019-Sep-21 15:00N 24°29' E 118°04'0 0.8
2019-Sep-21 14:30N 24°29' E 118°04'0 0.0
2019-Sep-21 13:45N 24°29' E 118°04'0 0.0
2019-Sep-21 13:30N 24°29' E 118°04'0 0.0
2019-Sep-21 13:00N 24°29' E 118°04'0 0.0
2019-Sep-21 12:18N 24°29' E 118°04'0 0.0
2019-Sep-21 11:57N 24°29' E 118°04'0 0.0
2019-Sep-21 11:18N 24°29' E 118°04'0 0.0
2019-Sep-21 11:00N 24°29' E 118°04'0 0.0
2019-Sep-21 10:23N 24°29' E 118°04'0 0.0
2019-Sep-21 09:49N 24°29' E 118°04'0 0.0
2019-Sep-21 09:22N 24°29' E 118°04'1 1.9
2019-Sep-21 09:00N 24°29' E 118°04'5 9.4
2019-Sep-21 08:31N 24°24' E 118°06'611.5
2019-Sep-21 08:00N 24°20' E 118°10'611.3
2019-Sep-21 07:30N 24°16' E 118°14'612.7
2019-Sep-21 07:00N 24°12' E 118°20'712.6
2019-Sep-21 06:29N 24°10' E 118°27'711.7
2019-Sep-21 05:52N 24°06' E 118°33'31 2.6
2019-Sep-20 18:00N 24°12' E 119°06'82 3.4 020 / 171005.010.8 26.020.2
2019-Sep-19 18:00N 24°54' E 120°24'3312.4 020 / 351009.0 5.4 25.017.5
2019-Sep-19 15:22N 25°13' E 120°53'411.7
2019-Sep-19 15:00N 25°16' E 120°57'611.3
2019-Sep-19 14:30N 25°19' E 121°02'611.3
2019-Sep-19 14:00N 25°22' E 121°08'713.2
2019-Sep-19 13:28N 25°25' E 121°14'713.0
2019-Sep-19 12:57N 25°29' E 121°20'1311.3
2019-Sep-19 11:50N 25°28' E 121°34'411.6
2019-Sep-19 11:28N 25°25' E 121°38'611.7
2019-Sep-19 10:58N 25°22' E 121°44'5 7.3
2019-Sep-19 10:19N 25°19' E 121°48'412.2
2019-Sep-19 09:58N 25°20' E 121°43'813.7
2019-Sep-19 09:22N 25°23' E 121°34'514.2
2019-Sep-19 09:00N 25°22' E 121°29'814.8
2019-Sep-19 08:29N 25°19' E 121°21'714.0
2019-Sep-19 07:59N 25°16' E 121°14'814.1
2019-Sep-19 07:24N 25°12' E 121°06'514.0
2019-Sep-19 07:00N 25°09' E 121°01'14612.1
2019-Sep-18 19:00N 24°06' E 118°36'26 9.3 030 / 411011.0 5.4 27.019.8
2019-Sep-18 16:10N 24°19' E 118°11'214.6
2019-Sep-18 16:00N 24°21' E 118°09'713.5
2019-Sep-18 15:31N 24°25' E 118°04'4 1.3
2019-Sep-18 12:41N 24°29' E 118°04'0 0.0
2019-Sep-18 10:47N 24°29' E 118°04'0 0.0
2019-Sep-18 10:24N 24°29' E 118°04'0 0.0
2019-Sep-18 09:59N 24°29' E 118°04'0 0.0
2019-Sep-18 09:24N 24°29' E 118°04'1 3.4
2019-Sep-18 09:00N 24°28' E 118°03'611.1
2019-Sep-18 08:31N 24°24' E 118°07'612.4
2019-Sep-18 08:00N 24°19' E 118°11'612.7
2019-Sep-18 07:30N 24°14' E 118°16'15214.2
2019-Sep-17 20:47N 25°08' E 120°53'615.6
2019-Sep-17 20:25N 25°11' E 120°58'715.4
2019-Sep-17 19:58N 25°13' E 121°05'714.8
2019-Sep-17 19:29N 25°16' E 121°13'714.8
2019-Sep-17 18:59N 25°19' E 121°20'714.9
2019-Sep-17 18:30N 25°22' E 121°28'916.7
2019-Sep-17 18:00N 25°18' E 121°36'566.8 020 / 271011.0 5.4 26.021.8
2019-Sep-17 17:55N 25°22' E 121°37'614.8
2019-Sep-17 17:30N 25°22' E 121°44'815.7
2019-Sep-17 16:58N 25°21' E 121°53'916.6
2019-Sep-17 16:27N 25°19' E 122°03'817.1
2019-Sep-17 15:59N 25°18' E 122°11'917.7
2019-Sep-17 15:27N 25°16' E 122°21'118 5.5
2019-Sep-16 18:00N 25°00' E 124°30'17013.3 010 / 351007.0 5.4 28.022.4
2019-Sep-16 05:15N 25°20' E 121°24'515.0
2019-Sep-16 04:56N 25°18' E 121°19'16515.0
2019-Sep-15 18:00N 24°06' E 118°36'1913.0 020 / 331008.010.8 28.022.4
2019-Sep-15 16:33N 24°16' E 118°19'116.0
2019-Sep-15 16:30N 24°16' E 118°18'815.3
2019-Sep-15 15:59N 24°20' E 118°10'714.0
2019-Sep-15 15:30N 24°25' E 118°05'4 8.3
2019-Sep-15 14:59N 24°29' E 118°04'0 0.0
2019-Sep-15 12:52N 24°29' E 118°04'0 0.0
2019-Sep-15 10:47N 24°29' E 118°04'0 0.0
2019-Sep-15 10:26N 24°29' E 118°04'0 0.0
2019-Sep-15 10:00N 24°29' E 118°04'0 0.0
2019-Sep-15 09:24N 24°29' E 118°04'1 2.4
2019-Sep-15 09:00N 24°29' E 118°03'510.5
2019-Sep-15 08:30N 24°24' E 118°06'611.7
2019-Sep-15 08:00N 24°20' E 118°11'714.3
2019-Sep-15 07:30N 24°18' E 118°18'16515.4
2019-Sep-14 20:50N 25°16' E 121°08'615.4
2019-Sep-14 20:28N 25°18' E 121°14'714.4
2019-Sep-14 19:57N 25°19' E 121°22'813.3
2019-Sep-14 19:20N 25°22' E 121°30'513.5
2019-Sep-14 18:59N 25°22' E 121°36'1113.4
2019-Sep-14 18:08N 25°21' E 121°48'325.3
2019-Sep-14 18:00N 25°18' E 121°48'148 6.2 020 / 191009.010.8 27.0
2019-Sep-13 18:00N 25°00' E 124°30'13513.4 360 / 211008.010.8 28.023.9
2019-Sep-13 07:57N 25°19' E 122°03'815.6
2019-Sep-13 07:26N 25°21' E 121°54'715.8
2019-Sep-13 06:59N 25°21' E 121°46'816.6
2019-Sep-13 06:29N 25°22' E 121°37'817.1
2019-Sep-13 05:59N 25°22' E 121°27'916.9
2019-Sep-13 05:29N 25°19' E 121°18'816.3
2019-Sep-13 05:00N 25°17' E 121°10'815.7
2019-Sep-13 04:29N 25°14' E 121°02'15414.7
2019-Sep-12 18:00N 24°06' E 118°30'1411.0 020 / 311009.010.8 28.022.4
2019-Sep-12 16:45N 24°15' E 118°18'313.5
2019-Sep-12 16:30N 24°16' E 118°15'714.2
2019-Sep-12 15:59N 24°21' E 118°09'613.0
2019-Sep-12 15:30N 24°25' E 118°04'4 0.8
2019-Sep-12 10:49N 24°29' E 118°04'0 0.0
2019-Sep-12 10:25N 24°29' E 118°04'0 0.0
2019-Sep-12 09:55N 24°29' E 118°04'0 0.0
2019-Sep-12 09:31N 24°29' E 118°04'3 6.0
2019-Sep-12 09:00N 24°26' E 118°03'612.2
2019-Sep-12 08:31N 24°22' E 118°08'5 9.2
2019-Sep-12 07:58N 24°19' E 118°12'510.6
2019-Sep-12 07:30N 24°17' E 118°17'15212.3
2019-Sep-11 19:10N 25°08' E 120°54'413.1
2019-Sep-11 18:50N 25°10' E 120°59'412.9
2019-Sep-11 18:29N 25°12' E 121°03'3 5.4
2019-Sep-11 18:00N 25°12' E 121°06'   070 / 251012.010.8 28.023.9
Track history (hours):
 
Tides and Currents Weather Stations Pressure Air Temp Water Temp Dewpoint Dewpoint Depression Visibility Wind Speed Wind Dir Waves Ship Positions

Norwegian Dream

Operator: Norwegian Cruise Line

Last reported at 2019-Sep-21 18:00 UTC. Time now 2019-Sep-22 00:22 UTC.
Position N 24°06' E 118°36'.

Type: Ship. MMSI: 308272000.

Wind from 100 at 6 knots

Barometer 1010.0 mb
Air temperature 25.0 ° C
Visibility: greater than 10.8 NM
Dewpoint 20.7 ° C

Date/timePositionNaut miles runAvg speedWind from/ knotsBaromVisibWave heightAir tempDewpointWater temp
2019-Sep-21 18:00N 24°06' E 118°36'1713.5 100 / 61010.010.8 25.020.7
2019-Sep-21 16:42N 24°13' E 118°19'314.9
2019-Sep-21 16:31N 24°14' E 118°16'714.2
2019-Sep-21 16:00N 24°20' E 118°11'713.2
2019-Sep-21 15:30N 24°24' E 118°06'5 9.5
2019-Sep-21 15:00N 24°29' E 118°04'0 0.8
2019-Sep-21 14:30N 24°29' E 118°04'0 0.0
2019-Sep-21 13:45N 24°29' E 118°04'0 0.0
2019-Sep-21 13:30N 24°29' E 118°04'0 0.0
2019-Sep-21 13:00N 24°29' E 118°04'0 0.0
2019-Sep-21 12:18N 24°29' E 118°04'0 0.0
2019-Sep-21 11:57N 24°29' E 118°04'0 0.0
2019-Sep-21 11:18N 24°29' E 118°04'0 0.0
2019-Sep-21 11:00N 24°29' E 118°04'0 0.0
2019-Sep-21 10:23N 24°29' E 118°04'0 0.0
2019-Sep-21 09:49N 24°29' E 118°04'0 0.0
2019-Sep-21 09:22N 24°29' E 118°04'1 1.9
2019-Sep-21 09:00N 24°29' E 118°04'5 9.4
2019-Sep-21 08:31N 24°24' E 118°06'611.5
2019-Sep-21 08:00N 24°20' E 118°10'611.3
2019-Sep-21 07:30N 24°16' E 118°14'612.7
2019-Sep-21 07:00N 24°12' E 118°20'712.6
2019-Sep-21 06:29N 24°10' E 118°27'711.7
2019-Sep-21 05:52N 24°06' E 118°33'31 2.6
2019-Sep-20 18:00N 24°12' E 119°06'82 3.4 020 / 171005.010.8 26.020.2
2019-Sep-19 18:00N 24°54' E 120°24'3312.4 020 / 351009.0 5.4 25.017.5
2019-Sep-19 15:22N 25°13' E 120°53'411.7
2019-Sep-19 15:00N 25°16' E 120°57'611.3
2019-Sep-19 14:30N 25°19' E 121°02'611.3
2019-Sep-19 14:00N 25°22' E 121°08'713.2
2019-Sep-19 13:28N 25°25' E 121°14'713.0
2019-Sep-19 12:57N 25°29' E 121°20'1311.3
2019-Sep-19 11:50N 25°28' E 121°34'411.6
2019-Sep-19 11:28N 25°25' E 121°38'611.7
2019-Sep-19 10:58N 25°22' E 121°44'5 7.3
2019-Sep-19 10:19N 25°19' E 121°48'412.2
2019-Sep-19 09:58N 25°20' E 121°43'813.7
2019-Sep-19 09:22N 25°23' E 121°34'514.2
2019-Sep-19 09:00N 25°22' E 121°29'814.8
2019-Sep-19 08:29N 25°19' E 121°21'714.0
2019-Sep-19 07:59N 25°16' E 121°14'814.1
2019-Sep-19 07:24N 25°12' E 121°06'514.0
2019-Sep-19 07:00N 25°09' E 121°01'14612.1
2019-Sep-18 19:00N 24°06' E 118°36'26 9.3 030 / 411011.0 5.4 27.019.8
2019-Sep-18 16:10N 24°19' E 118°11'214.6
2019-Sep-18 16:00N 24°21' E 118°09'713.5
2019-Sep-18 15:31N 24°25' E 118°04'4 1.3
2019-Sep-18 12:41N 24°29' E 118°04'0 0.0
2019-Sep-18 10:47N 24°29' E 118°04'0 0.0
2019-Sep-18 10:24N 24°29' E 118°04'0 0.0
2019-Sep-18 09:59N 24°29' E 118°04'0 0.0
2019-Sep-18 09:24N 24°29' E 118°04'1 3.4
2019-Sep-18 09:00N 24°28' E 118°03'611.1
2019-Sep-18 08:31N 24°24' E 118°07'612.4
2019-Sep-18 08:00N 24°19' E 118°11'612.7
2019-Sep-18 07:30N 24°14' E 118°16'15214.2
2019-Sep-17 20:47N 25°08' E 120°53'615.6
2019-Sep-17 20:25N 25°11' E 120°58'715.4
2019-Sep-17 19:58N 25°13' E 121°05'714.8
2019-Sep-17 19:29N 25°16' E 121°13'714.8
2019-Sep-17 18:59N 25°19' E 121°20'714.9
2019-Sep-17 18:30N 25°22' E 121°28'916.7
2019-Sep-17 18:00N 25°18' E 121°36'566.8 020 / 271011.0 5.4 26.021.8
2019-Sep-17 17:55N 25°22' E 121°37'614.8
2019-Sep-17 17:30N 25°22' E 121°44'815.7
2019-Sep-17 16:58N 25°21' E 121°53'916.6
2019-Sep-17 16:27N 25°19' E 122°03'817.1
2019-Sep-17 15:59N 25°18' E 122°11'917.7
2019-Sep-17 15:27N 25°16' E 122°21'118 5.5
2019-Sep-16 18:00N 25°00' E 124°30'17013.3 010 / 351007.0 5.4 28.022.4
2019-Sep-16 05:15N 25°20' E 121°24'515.0
2019-Sep-16 04:56N 25°18' E 121°19'16515.0
2019-Sep-15 18:00N 24°06' E 118°36'1913.0 020 / 331008.010.8 28.022.4
2019-Sep-15 16:33N 24°16' E 118°19'116.0
2019-Sep-15 16:30N 24°16' E 118°18'815.3
2019-Sep-15 15:59N 24°20' E 118°10'714.0
2019-Sep-15 15:30N 24°25' E 118°05'4 8.3
2019-Sep-15 14:59N 24°29' E 118°04'0 0.0
2019-Sep-15 12:52N 24°29' E 118°04'0 0.0
2019-Sep-15 10:47N 24°29' E 118°04'0 0.0
2019-Sep-15 10:26N 24°29' E 118°04'0 0.0
2019-Sep-15 10:00N 24°29' E 118°04'0 0.0
2019-Sep-15 09:24N 24°29' E 118°04'1 2.4
2019-Sep-15 09:00N 24°29' E 118°03'510.5
2019-Sep-15 08:30N 24°24' E 118°06'611.7
2019-Sep-15 08:00N 24°20' E 118°11'714.3
2019-Sep-15 07:30N 24°18' E 118°18'16515.4
2019-Sep-14 20:50N 25°16' E 121°08'615.4
2019-Sep-14 20:28N 25°18' E 121°14'714.4
2019-Sep-14 19:57N 25°19' E 121°22'813.3
2019-Sep-14 19:20N 25°22' E 121°30'513.5
2019-Sep-14 18:59N 25°22' E 121°36'1113.4
2019-Sep-14 18:08N 25°21' E 121°48'325.3
2019-Sep-14 18:00N 25°18' E 121°48'148 6.2 020 / 191009.010.8 27.0
2019-Sep-13 18:00N 25°00' E 124°30'13513.4 360 / 211008.010.8 28.023.9
2019-Sep-13 07:57N 25°19' E 122°03'815.6
2019-Sep-13 07:26N 25°21' E 121°54'715.8
2019-Sep-13 06:59N 25°21' E 121°46'816.6
2019-Sep-13 06:29N 25°22' E 121°37'817.1
2019-Sep-13 05:59N 25°22' E 121°27'916.9
2019-Sep-13 05:29N 25°19' E 121°18'816.3
2019-Sep-13 05:00N 25°17' E 121°10'815.7
2019-Sep-13 04:29N 25°14' E 121°02'15414.7
2019-Sep-12 18:00N 24°06' E 118°30'1411.0 020 / 311009.010.8 28.022.4
2019-Sep-12 16:45N 24°15' E 118°18'313.5
2019-Sep-12 16:30N 24°16' E 118°15'714.2
2019-Sep-12 15:59N 24°21' E 118°09'613.0
2019-Sep-12 15:30N 24°25' E 118°04'4 0.8
2019-Sep-12 10:49N 24°29' E 118°04'0 0.0
2019-Sep-12 10:25N 24°29' E 118°04'0 0.0
2019-Sep-12 09:55N 24°29' E 118°04'0 0.0
2019-Sep-12 09:31N 24°29' E 118°04'3 6.0
2019-Sep-12 09:00N 24°26' E 118°03'612.2
2019-Sep-12 08:31N 24°22' E 118°08'5 9.2
2019-Sep-12 07:58N 24°19' E 118°12'510.6
2019-Sep-12 07:30N 24°17' E 118°17'15212.3
2019-Sep-11 19:10N 25°08' E 120°54'413.1
2019-Sep-11 18:50N 25°10' E 120°59'412.9
2019-Sep-11 18:29N 25°12' E 121°03'3 5.4
2019-Sep-11 18:00N 25°12' E 121°06'   070 / 251012.010.8 28.023.9

Dump ship's entire track history